Time;durP1;ratioP1;P1;durP2;ratioP2;P2;SDS_P1;SDS_P2;PMS_P1;PMS_P2;Temp;Humidity;BMP_temperature;BMP_pressure;BME280_temperature;BME280_humidity;BME280_pressure;Samples;Min_cycle;Max_cycle;Signal;HPM_P1;HPM_P2
2021/09/01 00:09:49;;;;;;;5.78;2.78;;;19.00;71.40;;;;;;20957144;28;20177;-79
2021/09/01 00:19:50;;;;;;;3.20;2.17;;;18.90;71.30;;;;;;20940545;28;20040;-80
2021/09/01 00:29:50;;;;;;;3.95;2.08;;;18.90;71.30;;;;;;20955503;28;20182;-79
2021/09/01 00:39:51;;;;;;;3.75;2.45;;;18.90;71.30;;;;;;20954949;28;20174;-79
2021/09/01 00:49:53;;;;;;;6.38;2.40;;;18.90;71.30;;;;;;20954919;28;20048;-79
2021/09/01 00:59:53;;;;;;;5.43;2.63;;;18.90;71.40;;;;;;20938727;28;20039;-80
2021/09/01 01:09:54;;;;;;;6.15;3.13;;;18.90;71.50;;;;;;20970779;28;20041;-79
2021/09/01 01:19:54;;;;;;;5.20;2.22;;;18.90;71.60;;;;;;20954584;28;20052;-80
2021/09/01 01:30:08;;;;;;;8.88;2.60;;;18.90;71.60;;;;;;20937436;28;20048;-80
2021/09/01 01:40:09;;;;;;;7.35;2.63;;;18.90;71.60;;;;;;20937414;28;20159;-78
2021/09/01 01:50:10;;;;;;;5.72;2.72;;;18.90;71.70;;;;;;20977043;28;20119;-79
2021/09/01 02:00:11;;;;;;;5.13;2.92;;;18.90;71.70;;;;;;20967755;28;20060;-80
2021/09/01 02:10:15;;;;;;;5.35;2.78;;;18.90;71.80;;;;;;20967495;28;20044;-79
2021/09/01 02:20:15;;;;;;;4.85;2.33;;;18.90;71.80;;;;;;20965945;28;20071;-79
2021/09/01 02:30:17;;;;;;;5.75;3.30;;;18.90;71.80;;;;;;20965061;28;20173;-80
2021/09/01 02:40:18;;;;;;;4.18;2.67;;;18.90;71.90;;;;;;20965455;28;20056;-80
2021/09/01 02:50:19;;;;;;;8.65;3.42;;;18.90;71.90;;;;;;20980584;28;20063;-78
2021/09/01 03:00:19;;;;;;;5.78;3.00;;;18.90;72.00;;;;;;20962536;28;20037;-79
2021/09/01 03:10:20;;;;;;;6.70;2.85;;;18.90;72.00;;;;;;20997651;28;20086;-79
2021/09/01 03:20:20;;;;;;;6.90;3.00;;;18.90;72.00;;;;;;20944832;28;20071;-79
2021/09/01 03:30:21;;;;;;;4.88;3.42;;;18.90;72.00;;;;;;20977441;28;20115;-79
2021/09/01 03:40:22;;;;;;;5.47;3.10;;;18.90;72.10;;;;;;20944491;28;20548;-79
2021/09/01 03:50:22;;;;;;;6.72;2.80;;;18.90;72.10;;;;;;20975351;28;20032;-79
2021/09/01 04:00:23;;;;;;;5.47;2.72;;;18.80;72.00;;;;;;20942300;28;20066;-80
2021/09/01 04:10:23;;;;;;;5.50;2.88;;;18.80;72.00;;;;;;20956758;28;20055;-80
2021/09/01 04:20:24;;;;;;;8.95;3.53;;;18.80;72.00;;;;;;20973809;28;20123;-80
2021/09/01 04:30:24;;;;;;;9.35;3.42;;;18.80;72.00;;;;;;20956225;28;20040;-80
2021/09/01 04:40:25;;;;;;;8.10;3.60;;;18.80;72.00;;;;;;20955763;28;20041;-79
2021/09/01 04:50:25;;;;;;;5.22;3.00;;;18.80;72.00;;;;;;20971859;28;20029;-77
2021/09/01 05:00:26;;;;;;;5.22;3.13;;;18.80;72.00;;;;;;20972037;28;20032;-78
2021/09/01 05:10:27;;;;;;;4.50;3.33;;;18.80;72.00;;;;;;20951659;28;20127;-78
2021/09/01 05:20:27;;;;;;;6.70;3.13;;;18.80;72.00;;;;;;20967534;28;20123;-79
2021/09/01 05:30:28;;;;;;;7.35;3.08;;;18.80;72.00;;;;;;20971876;28;20294;-80
2021/09/01 05:40:28;;;;;;;9.32;3.25;;;18.80;72.00;;;;;;20951919;28;20116;-79
2021/09/01 05:50:29;;;;;;;5.72;2.58;;;18.80;72.00;;;;;;21019150;28;20051;-80
2021/09/01 06:00:36;;;;;;;7.47;3.40;;;18.80;71.90;;;;;;21051289;28;20040;-79
2021/09/01 06:10:37;;;;;;;5.30;3.13;;;18.80;72.00;;;;;;21033126;28;20052;-79
2021/09/01 06:20:38;;;;;;;8.70;3.38;;;18.70;71.90;;;;;;21033037;28;20028;-79
2021/09/01 06:30:39;;;;;;;6.55;2.83;;;18.70;71.80;;;;;;21032247;28;20032;-80
2021/09/01 06:40:40;;;;;;;4.95;3.00;;;18.70;71.80;;;;;;21062638;28;20492;-81
2021/09/01 06:50:41;;;;;;;6.97;2.78;;;18.70;71.80;;;;;;21034053;28;20035;-77
2021/09/01 07:00:42;;;;;;;5.30;3.22;;;18.70;71.80;;;;;;21084117;28;20476;-79
2021/09/01 07:10:43;;;;;;;4.32;2.58;;;18.70;71.80;;;;;;21034503;28;20048;-77
2021/09/01 07:20:43;;;;;;;5.80;2.83;;;18.70;71.70;;;;;;21065398;28;20042;-76
2021/09/01 07:30:44;;;;;;;6.70;2.60;;;18.70;71.70;;;;;;21037547;28;20064;-77
2021/09/01 07:40:45;;;;;;;5.85;2.83;;;18.70;71.70;;;;;;20995015;28;20294;-78
2021/09/01 07:50:45;;;;;;;5.25;2.67;;;18.70;71.70;;;;;;21004403;28;20041;-79
2021/09/01 08:00:46;;;;;;;7.30;3.05;;;18.70;72.40;;;;;;20970746;28;20360;-79
2021/09/01 08:10:46;;;;;;;7.30;3.35;;;18.70;71.80;;;;;;20946224;28;20056;-79
2021/09/01 08:20:47;;;;;;;4.60;2.83;;;18.70;71.80;;;;;;21013574;28;20081;-76
2021/09/01 08:30:47;;;;;;;7.68;2.90;;;18.70;71.90;;;;;;21011597;28;20098;-78
2021/09/01 08:40:48;;;;;;;4.78;2.58;;;18.70;71.90;;;;;;21025051;28;20067;-78
2021/09/01 08:50:49;;;;;;;5.43;3.15;;;18.70;71.90;;;;;;21047676;28;20041;-81
2021/09/01 09:00:50;;;;;;;5.45;2.60;;;18.70;72.10;;;;;;20997279;28;20035;-78
2021/09/01 09:10:50;;;;;;;5.95;2.60;;;18.70;72.00;;;;;;21021859;28;20039;-75
2021/09/01 09:21:13;;;;;;;4.80;3.25;;;18.70;72.10;;;;;;21059637;28;20145;-78
2021/09/01 09:31:13;;;;;;;5.05;2.75;;;18.70;72.10;;;;;;20973962;28;20039;-76
2021/09/01 09:41:21;;;;;;;5.90;3.40;;;18.70;72.10;;;;;;20980733;28;20617;-77
2021/09/01 09:51:42;;;;;;;4.10;2.60;;;18.70;72.00;;;;;;21051665;28;20379;-76
2021/09/01 10:01:43;;;;;;;6.40;3.17;;;18.70;72.10;;;;;;21004218;28;20031;-78
2021/09/01 10:11:48;;;;;;;8.55;2.97;;;18.70;72.10;;;;;;21391556;22;20160;-78
2021/09/01 10:22:00;;;;;;;5.27;2.73;;;18.70;72.10;;;;;;20942201;28;20032;-81
2021/09/01 10:32:26;;;;;;;8.70;3.10;;;18.70;72.10;;;;;;20943999;28;20033;-79
2021/09/01 10:42:43;;;;;;;6.73;3.60;;;18.80;72.20;;;;;;20898107;28;20117;-78
2021/09/01 10:53:02;;;;;;;7.20;3.42;;;18.70;72.20;;;;;;20931753;28;20407;-82
2021/09/01 11:03:05;;;;;;;6.32;3.38;;;18.70;72.30;;;;;;20932848;28;20043;-82
2021/09/01 11:13:12;;;;;;;5.40;3.03;;;18.70;72.30;;;;;;20979004;28;20072;-83
2021/09/01 11:23:14;;;;;;;8.30;3.28;;;18.70;72.50;;;;;;20942243;28;20479;-82
2021/09/01 11:33:16;;;;;;;8.50;3.40;;;18.80;72.60;;;;;;20919277;28;20040;-83
2021/09/01 11:43:20;;;;;;;5.45;3.30;;;18.80;72.70;;;;;;20917901;28;20391;-78
2021/09/01 11:53:21;;;;;;;10.53;3.27;;;18.80;72.70;;;;;;20913359;28;20470;-78
2021/09/01 12:03:21;;;;;;;5.22;3.03;;;18.80;72.80;;;;;;20934330;28;20032;-82
2021/09/01 12:13:45;;;;;;;10.82;3.75;;;18.80;72.70;;;;;;20955304;28;20091;-78
2021/09/01 12:23:46;;;;;;;4.05;2.95;;;18.80;72.70;;;;;;20916567;28;20037;-78
2021/09/01 12:33:49;;;;;;;4.63;3.03;;;18.80;72.70;;;;;;20921873;28;20044;-81
2021/09/01 12:43:59;;;;;;;7.13;3.75;;;18.80;72.60;;;;;;20932615;28;20040;-81
2021/09/01 12:54:00;;;;;;;4.55;2.65;;;18.90;72.60;;;;;;20922196;28;20060;-78
2021/09/01 13:04:00;;;;;;;6.35;3.13;;;18.90;72.50;;;;;;20942442;28;20120;-84
2021/09/01 13:14:01;;;;;;;5.90;3.10;;;19.00;72.50;;;;;;20942618;28;20041;-81
2021/09/01 13:24:02;;;;;;;5.47;2.85;;;18.90;72.40;;;;;;20958050;28;20067;-82
2021/09/01 13:34:03;;;;;;;4.95;2.88;;;18.90;72.30;;;;;;20956354;28;20452;-87
2021/09/01 13:44:04;;;;;;;6.07;3.60;;;19.00;72.30;;;;;;20912389;28;20043;-86
2021/09/01 13:54:06;;;;;;;6.47;3.05;;;19.00;72.20;;;;;;20877882;28;20033;-82
2021/09/01 14:04:06;;;;;;;4.43;2.67;;;19.00;72.10;;;;;;20888951;28;20127;-79
2021/09/01 14:14:07;;;;;;;5.95;2.90;;;19.10;72.20;;;;;;20886704;28;20041;-79
2021/09/01 14:24:09;;;;;;;7.28;3.28;;;19.10;72.20;;;;;;20889481;28;20033;-79
2021/09/01 14:34:09;;;;;;;7.35;3.40;;;19.20;72.40;;;;;;20905705;28;20486;-79
2021/09/01 14:44:10;;;;;;;4.85;2.78;;;19.20;72.50;;;;;;20872191;28;20414;-79
2021/09/01 14:54:11;;;;;;;5.55;2.45;;;19.30;72.50;;;;;;20902625;28;20112;-77
2021/09/01 15:04:12;;;;;;;4.78;3.00;;;19.30;72.50;;;;;;20903358;28;20056;-81
2021/09/01 15:14:13;;;;;;;5.47;2.85;;;19.30;73.10;;;;;;20904187;28;20068;-77
2021/09/01 15:24:14;;;;;;;5.40;2.78;;;19.40;72.40;;;;;;20897322;28;20033;-77
2021/09/01 15:34:17;;;;;;;6.57;2.67;;;19.40;72.30;;;;;;20899340;28;20043;-79
2021/09/01 15:44:17;;;;;;;4.15;2.45;;;19.50;72.50;;;;;;20944022;28;20029;-77
2021/09/01 15:54:18;;;;;;;4.80;3.00;;;19.60;72.70;;;;;;20960271;28;20117;-77
2021/09/01 16:04:21;;;;;;;4.57;2.85;;;19.60;72.30;;;;;;20970745;28;20104;-82
2021/09/01 16:14:30;;;;;;;3.88;2.83;;;19.60;72.20;;;;;;20952607;28;20064;-82
2021/09/01 16:24:32;;;;;;;5.40;2.80;;;19.60;72.20;;;;;;20913640;28;20107;-72
2021/09/01 16:34:33;;;;;;;6.53;3.10;;;19.60;72.20;;;;;;20968268;28;20033;-79
2021/09/01 16:44:34;;;;;;;5.53;2.85;;;19.70;72.20;;;;;;20944265;28;20041;-77
2021/09/01 16:54:58;;;;;;;;;;;19.70;72.20;;;;;;20945169;28;20406;-75
2021/09/01 17:04:59;;;;;;;6.70;2.92;;;19.70;72.20;;;;;;20940883;28;20300;-75
2021/09/01 17:15:00;;;;;;;6.07;2.50;;;19.60;72.10;;;;;;20957954;28;20072;-76
2021/09/01 17:25:13;;;;;;;4.22;2.42;;;19.60;72.20;;;;;;20955497;28;20123;-80
2021/09/01 17:35:18;;;;;;;4.38;3.00;;;19.60;72.20;;;;;;20989194;28;20123;-78
2021/09/01 17:45:22;;;;;;;3.60;2.67;;;19.60;72.20;;;;;;20957725;28;20048;-77
2021/09/01 17:55:23;;;;;;;4.80;2.65;;;19.50;72.20;;;;;;21006957;28;20119;-78
2021/09/01 18:05:25;;;;;;;3.47;2.40;;;19.50;72.30;;;;;;20972268;28;20056;-79
2021/09/01 18:15:26;;;;;;;4.57;2.88;;;19.50;72.40;;;;;;20972277;28;20134;-78
2021/09/01 18:25:30;;;;;;;4.90;2.88;;;19.40;72.40;;;;;;20970345;28;20044;-79
2021/09/01 18:35:33;;;;;;;3.60;2.53;;;19.40;72.50;;;;;;20970360;28;20457;-78
2021/09/01 18:45:34;;;;;;;5.30;3.05;;;19.40;72.60;;;;;;20986600;28;20036;-79
2021/09/01 18:55:35;;;;;;;5.63;3.23;;;19.40;72.60;;;;;;20970143;28;20154;-78
2021/09/01 19:05:53;;;;;;;4.95;3.53;;;19.40;72.70;;;;;;20917862;28;20048;-79
2021/09/01 19:15:54;;;;;;;7.50;2.75;;;19.30;72.60;;;;;;20917135;28;20389;-80
2021/09/01 19:25:54;;;;;;;4.95;3.28;;;19.30;72.70;;;;;;20896930;28;20041;-80
2021/09/01 19:35:59;;;;;;;4.50;2.67;;;19.30;72.70;;;;;;20907154;28;20516;-78
2021/09/01 19:46:01;;;;;;;4.90;2.95;;;19.30;72.70;;;;;;20948447;28;20036;-79
2021/09/01 19:56:02;;;;;;;5.03;2.83;;;19.30;72.80;;;;;;20910310;28;20445;-78
2021/09/01 20:06:03;;;;;;;5.40;2.78;;;19.30;72.80;;;;;;20920526;28;20051;-79
2021/09/01 20:16:08;;;;;;;5.90;2.90;;;19.30;72.80;;;;;;20928187;28;20029;-80
2021/09/01 20:26:09;;;;;;;6.68;2.90;;;19.30;72.80;;;;;;20847709;28;20041;-81
2021/09/01 20:36:18;;;;;;;3.90;3.17;;;19.30;72.90;;;;;;20881375;28;20040;-80
2021/09/01 20:46:22;;;;;;;3.90;2.80;;;19.30;72.90;;;;;;20864497;28;20064;-80
2021/09/01 20:56:25;;;;;;;4.10;2.80;;;19.20;72.90;;;;;;20942042;28;20463;-80
2021/09/01 21:06:27;;;;;;;4.70;3.20;;;19.20;72.90;;;;;;20901373;28;20049;-79
2021/09/01 21:16:39;;;;;;;3.72;2.67;;;19.30;73.00;;;;;;20863684;28;20136;-79
2021/09/01 21:26:44;;;;;;;4.70;3.22;;;19.20;72.90;;;;;;20878535;28;20064;-80
2021/09/01 21:36:49;;;;;;;4.13;2.70;;;19.20;72.90;;;;;;20875918;28;20631;-78
2021/09/01 21:46:51;;;;;;;4.32;2.92;;;19.20;72.90;;;;;;20877011;28;20053;-80
2021/09/01 21:56:53;;;;;;;4.50;2.85;;;19.20;72.90;;;;;;20860383;28;20049;-78
2021/09/01 22:06:55;;;;;;;3.80;2.97;;;19.20;72.90;;;;;;20851240;28;20079;-79
2021/09/01 22:16:57;;;;;;;3.90;3.10;;;19.10;72.80;;;;;;20891874;28;20040;-79
2021/09/01 22:26:58;;;;;;;3.88;2.60;;;19.20;72.80;;;;;;20891064;28;20040;-79
2021/09/01 22:36:59;;;;;;;5.68;2.42;;;19.10;72.70;;;;;;20889039;28;20101;-78
2021/09/01 22:47:00;;;;;;;5.05;2.95;;;19.10;72.70;;;;;;20872802;28;20049;-78
2021/09/01 22:57:01;;;;;;;3.38;2.60;;;19.10;72.60;;;;;;20855855;28;20083;-79
2021/09/01 23:07:01;;;;;;;3.72;2.55;;;19.10;72.60;;;;;;20871200;28;20051;-80
2021/09/01 23:17:04;;;;;;;4.00;2.47;;;19.10;72.50;;;;;;20884677;28;20487;-81
2021/09/01 23:27:05;;;;;;;3.67;2.35;;;19.10;72.40;;;;;;20869828;28;20398;-79
2021/09/01 23:37:07;;;;;;;3.33;2.42;;;19.10;72.40;;;;;;20869063;28;20635;-79
2021/09/01 23:47:09;;;;;;;3.35;2.28;;;19.10;72.30;;;;;;20899237;28;20049;-78
2021/09/01 23:57:10;;;;;;;3.63;2.28;;;19.10;72.20;;;;;;20900415;28;20045;-81
